Time,TemperatureF,DewpointF,PressureIn,WindDirection,WindDirectionDegrees,WindSpeedMPH,WindSpeedGustMPH,Humidity,HourlyPrecipIn,Conditions,Clouds,dailyrainin,SoftwareType,DateUTC
2013-07-20 00:01:00,86.9,71.3,29.89,West,270,5.4,6.9,60,0.00,,,0.00,pywws,2013-07-20 04:01:00,
2013-07-20 00:02:00,86.9,71.3,29.89,South,180,6.0,9.2,60,0.00,,,0.00,pywws,2013-07-20 04:02:00,
2013-07-20 00:03:00,86.9,71.3,29.89,SW,225,7.6,13.0,60,0.00,,,0.00,pywws,2013-07-20 04:03:00,
2013-07-20 00:06:00,86.7,71.1,29.89,South,180,6.0,9.2,60,0.00,,,0.00,pywws,2013-07-20 04:06:00,
2013-07-20 00:11:00,86.7,71.6,29.89,NW,315,3.1,5.4,61,0.00,,,0.00,pywws,2013-07-20 04:11:00,
2013-07-20 00:17:00,86.5,71.5,29.89,West,270,4.5,7.6,61,0.00,,,0.00,pywws,2013-07-20 04:17:00,
2013-07-20 00:23:00,86.4,71.3,29.89,NW,315,1.6,3.8,61,0.00,,,0.00,pywws,2013-07-20 04:23:00,
2013-07-20 00:28:00,86.4,71.8,29.89,SW,225,3.1,3.8,62,0.00,,,0.00,pywws,2013-07-20 04:28:00,
2013-07-20 00:34:00,86.4,71.8,29.90,West,270,3.8,6.0,62,0.00,,,0.00,pywws,2013-07-20 04:34:00,
2013-07-20 00:39:00,86.2,71.6,29.89,East,90,3.1,5.4,62,0.00,,,0.00,pywws,2013-07-20 04:39:00,
2013-07-20 00:45:00,86.2,71.6,29.90,West,270,2.2,3.8,62,0.00,,,0.00,pywws,2013-07-20 04:45:00,
2013-07-20 00:51:00,86.0,71.9,29.90,NW,315,4.5,6.9,63,0.00,,,0.00,pywws,2013-07-20 04:51:00,
2013-07-20 00:56:00,85.8,72.2,29.91,West,270,3.1,4.5,64,0.00,,,0.00,pywws,2013-07-20 04:56:00,
2013-07-20 01:02:00,85.6,72.0,29.90,West,270,4.5,5.4,64,0.00,,,0.00,pywws,2013-07-20 05:02:00,
2013-07-20 01:07:00,85.5,71.9,29.91,SW,225,3.1,6.9,64,0.00,,,0.00,pywws,2013-07-20 05:07:00,
2013-07-20 01:13:00,85.5,71.9,29.91,SW,225,3.1,4.5,64,0.00,,,0.00,pywws,2013-07-20 05:13:00,
2013-07-20 01:19:00,85.5,71.4,29.91,SW,225,4.5,7.6,63,0.00,,,0.00,pywws,2013-07-20 05:19:00,
2013-07-20 01:24:00,85.5,71.4,29.91,South,180,5.4,6.9,63,0.00,,,0.00,pywws,2013-07-20 05:24:00,
2013-07-20 01:30:00,85.3,71.2,29.91,West,270,3.8,6.9,63,0.00,,,0.00,pywws,2013-07-20 05:30:00,
2013-07-20 01:35:00,85.1,71.1,29.91,SE,135,1.6,3.8,63,0.00,,,0.00,pywws,2013-07-20 05:35:00,
2013-07-20 01:41:00,84.9,70.9,29.90,West,270,4.5,5.4,63,0.00,,,0.00,pywws,2013-07-20 05:41:00,
2013-07-20 01:47:00,84.7,70.7,29.90,WNW,292,4.5,6.9,63,0.00,,,0.00,pywws,2013-07-20 05:47:00,
2013-07-20 01:58:00,84.4,70.8,29.90,West,270,3.1,5.4,64,0.00,,,0.00,pywws,2013-07-20 05:58:00,
2013-07-20 02:04:00,84.6,71.0,29.90,SW,225,5.4,8.3,64,0.00,,,0.00,pywws,2013-07-20 06:04:00,
2013-07-20 02:10:00,84.4,68.9,29.90,West,270,5.4,6.9,60,0.00,,,0.00,pywws,2013-07-20 06:10:00,
2013-07-20 02:15:00,84.2,68.8,29.90,NW,315,6.0,9.8,60,0.00,,,0.00,pywws,2013-07-20 06:15:00,
2013-07-20 02:21:00,84.0,68.6,29.90,South,180,3.1,5.4,60,0.00,,,0.00,pywws,2013-07-20 06:21:00,
2013-07-20 02:27:00,83.8,68.4,29.90,WSW,248,5.4,9.8,60,0.00,,,0.00,pywws,2013-07-20 06:27:00,
2013-07-20 02:32:00,83.7,68.3,29.90,NW,315,7.6,12.1,60,0.00,,,0.00,pywws,2013-07-20 06:32:00,
2013-07-20 02:38:00,83.5,68.1,29.89,SW,225,4.5,9.8,60,0.00,,,0.00,pywws,2013-07-20 06:38:00,
2013-07-20 02:43:00,83.3,67.9,29.89,West,270,5.4,7.6,60,0.00,,,0.00,pywws,2013-07-20 06:43:00,
2013-07-20 02:49:00,83.1,67.8,29.88,WSW,248,2.2,5.4,60,0.00,,,0.00,pywws,2013-07-20 06:49:00,
2013-07-20 02:55:00,83.1,67.8,29.88,NE,45,4.5,5.4,60,0.00,,,0.00,pywws,2013-07-20 06:55:00,
2013-07-20 03:00:00,83.1,67.8,29.88,NW,315,1.6,3.8,60,0.00,,,0.00,pywws,2013-07-20 07:00:00,
2013-07-20 03:06:00,82.9,67.6,29.87,SSE,158,1.6,3.1,60,0.00,,,0.00,pywws,2013-07-20 07:06:00,
2013-07-20 03:11:00,82.8,67.4,29.88,SW,225,3.8,7.6,60,0.00,,,0.00,pywws,2013-07-20 07:11:00,
2013-07-20 03:17:00,82.6,67.3,29.87,NW,315,3.8,6.9,60,0.00,,,0.00,pywws,2013-07-20 07:17:00,
2013-07-20 03:23:00,82.4,67.1,29.87,SSW,202,0.7,1.6,60,0.00,,,0.00,pywws,2013-07-20 07:23:00,
2013-07-20 03:28:00,82.2,67.9,29.87,SW,225,2.2,3.8,62,0.00,,,0.00,pywws,2013-07-20 07:28:00,
2013-07-20 03:34:00,82.0,67.7,29.87,WSW,248,2.2,5.4,62,0.00,,,0.00,pywws,2013-07-20 07:34:00,
2013-07-20 03:39:00,82.0,67.7,29.87,West,270,3.1,4.5,62,0.00,,,0.00,pywws,2013-07-20 07:39:00,
2013-07-20 03:45:00,81.7,67.4,29.87,NW,315,2.2,3.8,62,0.00,,,0.00,pywws,2013-07-20 07:45:00,
2013-07-20 03:51:00,81.7,67.4,29.87,West,270,2.2,3.8,62,0.00,,,0.00,pywws,2013-07-20 07:51:00,
2013-07-20 03:56:00,81.7,67.4,29.86,West,270,3.8,5.4,62,0.00,,,0.00,pywws,2013-07-20 07:56:00,
2013-07-20 04:02:00,81.7,67.4,29.86,SW,225,2.2,3.1,62,0.00,,,0.00,pywws,2013-07-20 08:02:00,
2013-07-20 04:07:00,81.5,67.2,29.86,South,180,1.6,3.1,62,0.00,,,0.00,pywws,2013-07-20 08:07:00,
2013-07-20 04:13:00,81.3,67.0,29.86,WNW,292,3.8,5.4,62,0.00,,,0.00,pywws,2013-07-20 08:13:00,
2013-07-20 04:19:00,81.3,67.0,29.86,West,270,2.2,3.1,62,0.00,,,0.00,pywws,2013-07-20 08:19:00,
2013-07-20 04:24:00,81.1,67.3,29.86,SW,225,3.1,6.0,63,0.00,,,0.00,pywws,2013-07-20 08:24:00,
2013-07-20 04:30:00,81.1,67.3,29.85,South,180,0.7,1.6,63,0.00,,,0.00,pywws,2013-07-20 08:30:00,
2013-07-20 04:35:00,81.1,67.3,29.85,SE,135,0.7,2.2,63,0.00,,,0.00,pywws,2013-07-20 08:35:00,
2013-07-20 04:41:00,81.0,67.2,29.85,WSW,248,3.1,4.5,63,0.00,,,0.00,pywws,2013-07-20 08:41:00,
2013-07-20 04:47:00,80.8,67.0,29.85,SW,225,3.1,4.5,63,0.00,,,0.00,pywws,2013-07-20 08:47:00,
2013-07-20 04:52:00,80.6,66.8,29.85,SSE,158,3.1,5.4,63,0.00,,,0.00,pywws,2013-07-20 08:52:00,
2013-07-20 04:58:00,80.4,67.1,29.85,SW,225,1.6,3.1,64,0.00,,,0.00,pywws,2013-07-20 08:58:00,
2013-07-20 05:03:00,80.4,67.1,29.85,SW,225,3.8,6.0,64,0.00,,,0.00,pywws,2013-07-20 09:03:00,
2013-07-20 05:09:00,80.2,66.9,29.85,SSW,202,3.1,6.0,64,0.00,,,0.00,pywws,2013-07-20 09:09:00,
2013-07-20 05:15:00,80.1,67.2,29.85,SW,225,1.6,3.8,65,0.00,,,0.00,pywws,2013-07-20 09:15:00,
2013-07-20 05:20:00,80.2,67.4,29.85,South,180,2.2,3.8,65,0.00,,,0.00,pywws,2013-07-20 09:20:00,
2013-07-20 05:26:00,80.1,67.2,29.86,West,270,3.8,4.5,65,0.00,,,0.00,pywws,2013-07-20 09:26:00,
2013-07-20 05:31:00,80.1,67.2,29.86,WSW,248,4.5,6.9,65,0.00,,,0.00,pywws,2013-07-20 09:31:00,
2013-07-20 05:37:00,79.9,67.0,29.87,West,270,3.1,4.5,65,0.00,,,0.00,pywws,2013-07-20 09:37:00,
2013-07-20 05:43:00,79.7,66.9,29.87,North,0,4.5,7.6,65,0.00,,,0.00,pywws,2013-07-20 09:43:00,
2013-07-20 05:48:00,79.7,66.9,29.87,West,270,4.5,8.3,65,0.00,,,0.00,pywws,2013-07-20 09:48:00,
2013-07-20 05:54:00,79.7,66.9,29.87,West,270,1.6,4.5,65,0.00,,,0.00,pywws,2013-07-20 09:54:00,
2013-07-20 05:59:00,79.5,66.7,29.87,SW,225,6.0,10.7,65,0.00,,,0.00,pywws,2013-07-20 09:59:00,
2013-07-20 06:05:00,79.5,66.7,29.88,West,270,3.1,6.0,65,0.00,,,0.00,pywws,2013-07-20 10:05:00,
2013-07-20 06:11:00,79.5,67.1,29.87,SW,225,5.4,8.3,66,0.00,,,0.00,pywws,2013-07-20 10:11:00,
2013-07-20 06:16:00,79.5,67.1,29.88,WSW,248,3.8,5.4,66,0.00,,,0.00,pywws,2013-07-20 10:16:00,
2013-07-20 06:22:00,79.5,67.1,29.88,SW,225,5.4,11.4,66,0.00,,,0.00,pywws,2013-07-20 10:22:00,
2013-07-20 06:27:00,79.7,67.3,29.88,SW,225,2.2,3.1,66,0.00,,,0.00,pywws,2013-07-20 10:27:00,
2013-07-20 06:33:00,79.7,67.3,29.88,NW,315,5.4,9.2,66,0.00,,,0.00,pywws,2013-07-20 10:33:00,
2013-07-20 06:39:00,79.7,67.3,29.88,SW,225,5.4,7.6,66,0.00,,,0.00,pywws,2013-07-20 10:39:00,
2013-07-20 06:44:00,79.5,67.1,29.88,WSW,248,6.0,8.3,66,0.00,,,0.00,pywws,2013-07-20 10:44:00,
2013-07-20 06:50:00,79.5,67.1,29.88,South,180,2.2,4.5,66,0.00,,,0.00,pywws,2013-07-20 10:50:00,
2013-07-20 06:55:00,79.5,67.1,29.89,NW,315,4.5,6.0,66,0.00,,,0.00,pywws,2013-07-20 10:55:00,
2013-07-20 07:01:00,79.5,67.1,29.89,SW,225,3.8,5.4,66,0.00,,,0.00,pywws,2013-07-20 11:01:00,
2013-07-20 07:07:00,79.5,67.1,29.89,SW,225,4.5,7.6,66,0.00,,,0.00,pywws,2013-07-20 11:07:00,
2013-07-20 07:12:00,79.5,67.1,29.89,NW,315,4.5,6.9,66,0.00,,,0.00,pywws,2013-07-20 11:12:00,
2013-07-20 07:18:00,79.5,67.1,29.88,West,270,6.0,8.3,66,0.00,,,0.00,pywws,2013-07-20 11:18:00,
2013-07-20 07:23:00,79.5,67.1,29.89,West,270,3.1,5.4,66,0.00,,,0.00,pywws,2013-07-20 11:23:00,
2013-07-20 07:29:00,79.7,67.3,29.89,NW,315,3.1,5.4,66,0.00,,,0.00,pywws,2013-07-20 11:29:00,
2013-07-20 07:35:00,79.9,67.5,29.89,SW,225,5.4,7.6,66,0.00,,,0.00,pywws,2013-07-20 11:35:00,
2013-07-20 07:40:00,80.1,67.2,29.90,SW,225,2.2,3.8,65,0.00,,,0.00,pywws,2013-07-20 11:40:00,
2013-07-20 07:46:00,80.2,67.4,29.90,NW,315,3.1,6.9,65,0.00,,,0.00,pywws,2013-07-20 11:46:00,
2013-07-20 07:51:00,80.4,67.6,29.90,West,270,2.2,3.8,65,0.00,,,0.00,pywws,2013-07-20 11:51:00,
2013-07-20 07:57:00,80.4,67.6,29.90,West,270,3.1,3.8,65,0.00,,,0.00,pywws,2013-07-20 11:57:00,
2013-07-20 08:03:00,80.6,66.8,29.90,NW,315,2.2,4.5,63,0.00,,,0.00,pywws,2013-07-20 12:03:00,
2013-07-20 08:08:00,80.8,67.4,29.90,North,0,3.1,4.5,64,0.00,,,0.00,pywws,2013-07-20 12:08:00,
2013-07-20 08:14:00,81.0,67.2,29.90,West,270,3.8,6.0,63,0.00,,,0.00,pywws,2013-07-20 12:14:00,
2013-07-20 08:19:00,81.1,67.3,29.90,NW,315,1.6,3.8,63,0.00,,,0.00,pywws,2013-07-20 12:19:00,
2013-07-20 08:25:00,81.3,67.5,29.89,SW,225,1.6,3.1,63,0.00,,,0.00,pywws,2013-07-20 12:25:00,
2013-07-20 08:31:00,81.5,67.7,29.89,SW,225,3.8,6.9,63,0.00,,,0.00,pywws,2013-07-20 12:31:00,
2013-07-20 08:36:00,81.7,67.8,29.89,NW,315,0.7,3.1,63,0.00,,,0.00,pywws,2013-07-20 12:36:00,
2013-07-20 08:42:00,82.2,67.9,29.89,West,270,3.8,6.0,62,0.00,,,0.00,pywws,2013-07-20 12:42:00,
2013-07-20 08:47:00,82.4,67.6,29.88,NW,315,3.1,4.5,61,0.00,,,0.00,pywws,2013-07-20 12:47:00,
2013-07-20 08:53:00,82.8,68.4,29.88,West,270,6.9,11.4,62,0.00,,,0.00,pywws,2013-07-20 12:53:00,
2013-07-20 08:59:00,83.1,68.2,29.88,NW,315,3.8,6.0,61,0.00,,,0.00,pywws,2013-07-20 12:59:00,
2013-07-20 09:04:00,83.8,68.4,29.88,West,270,8.3,11.4,60,0.00,,,0.00,pywws,2013-07-20 13:04:00,
2013-07-20 09:10:00,84.0,68.1,29.88,NW,315,6.0,9.2,59,0.00,,,0.00,pywws,2013-07-20 13:10:00,
2013-07-20 09:15:00,84.0,68.1,29.88,SW,225,3.8,6.9,59,0.00,,,0.00,pywws,2013-07-20 13:15:00,
2013-07-20 09:21:00,84.4,68.0,29.88,WSW,248,5.4,7.6,58,0.00,,,0.00,pywws,2013-07-20 13:21:00,
2013-07-20 09:27:00,84.6,68.1,29.89,West,270,5.4,9.2,58,0.00,,,0.00,pywws,2013-07-20 13:27:00,
2013-07-20 09:32:00,85.1,68.6,29.89,South,180,9.2,11.4,58,0.00,,,0.00,pywws,2013-07-20 13:32:00,
2013-07-20 09:38:00,85.8,68.8,29.88,SSE,158,5.4,6.0,57,0.00,,,0.00,pywws,2013-07-20 13:38:00,
2013-07-20 09:43:00,86.2,68.6,29.88,NW,315,3.8,7.6,56,0.00,,,0.00,pywws,2013-07-20 13:43:00,
2013-07-20 09:49:00,86.7,69.6,29.88,West,270,5.4,9.2,57,0.00,,,0.00,pywws,2013-07-20 13:49:00,
2013-07-20 09:51:00,87.1,70.0,29.88,West,270,3.8,7.6,57,0.00,,,0.00,pywws,2013-07-20 13:51:00,
2013-07-20 09:56:00,87.4,69.3,29.88,West,270,5.4,8.3,55,0.00,,,0.00,pywws,2013-07-20 13:56:00,
2013-07-20 10:02:00,87.8,69.0,29.88,South,180,3.1,6.9,54,0.00,,,0.00,pywws,2013-07-20 14:02:00,
2013-07-20 10:07:00,88.2,69.4,29.88,West,270,3.8,8.3,54,0.00,,,0.00,pywws,2013-07-20 14:07:00,
2013-07-20 10:13:00,88.0,68.7,29.88,SW,225,1.6,6.0,53,0.00,,,0.00,pywws,2013-07-20 14:13:00,
2013-07-20 10:19:00,88.3,69.0,29.88,SW,225,6.0,9.8,53,0.00,,,0.00,pywws,2013-07-20 14:19:00,
2013-07-20 10:24:00,89.1,69.7,29.88,West,270,7.6,10.7,53,0.00,,,0.00,pywws,2013-07-20 14:24:00,
2013-07-20 10:30:00,89.2,69.8,29.88,NW,315,8.3,10.7,53,0.00,,,0.00,pywws,2013-07-20 14:30:00,
2013-07-20 10:35:00,89.8,69.2,29.88,SW,225,5.4,7.6,51,0.00,,,0.00,pywws,2013-07-20 14:35:00,
2013-07-20 10:41:00,90.0,69.9,29.88,NNE,22,5.4,6.9,52,0.00,,,0.00,pywws,2013-07-20 14:41:00,
2013-07-20 10:47:00,90.7,70.6,29.87,SW,225,3.8,6.0,52,0.00,,,0.00,pywws,2013-07-20 14:47:00,
2013-07-20 10:52:00,90.7,69.4,29.87,West,270,3.8,8.3,50,0.00,,,0.00,pywws,2013-07-20 14:52:00,
2013-07-20 10:58:00,90.7,70.0,29.87,NW,315,6.9,9.2,51,0.00,,,0.00,pywws,2013-07-20 14:58:00,
2013-07-20 11:03:00,90.7,68.9,29.87,West,270,6.0,8.3,49,0.00,,,0.00,pywws,2013-07-20 15:03:00,
2013-07-20 11:09:00,90.3,68.5,29.86,SW,225,3.1,5.4,49,0.00,,,0.00,pywws,2013-07-20 15:09:00,
2013-07-20 11:15:00,90.9,70.2,29.86,SW,225,1.6,2.2,51,0.00,,,0.00,pywws,2013-07-20 15:15:00,
2013-07-20 11:21:00,91.8,70.4,29.86,SW,225,3.8,6.0,50,0.00,,,0.00,pywws,2013-07-20 15:21:00,
2013-07-20 11:27:00,92.1,70.8,29.85,SE,135,1.6,3.1,50,0.00,,,0.00,pywws,2013-07-20 15:27:00,
2013-07-20 11:32:00,92.5,70.5,29.85,North,0,3.8,5.4,49,0.00,,,0.00,pywws,2013-07-20 15:32:00,
2013-07-20 11:38:00,92.1,70.8,29.85,East,90,2.2,3.8,50,0.00,,,0.00,pywws,2013-07-20 15:38:00,
2013-07-20 11:43:00,92.1,70.8,29.85,NW,315,3.1,3.8,50,0.00,,,0.00,pywws,2013-07-20 15:43:00,
2013-07-20 11:49:00,93.0,71.6,29.85,SW,225,5.4,7.6,50,0.00,,,0.00,pywws,2013-07-20 15:49:00,
2013-07-20 11:55:00,93.4,70.7,29.84,SW,225,6.0,8.3,48,0.00,,,0.00,pywws,2013-07-20 15:55:00,
2013-07-20 12:00:00,93.6,70.9,29.84,South,180,2.2,3.8,48,0.00,,,0.00,pywws,2013-07-20 16:00:00,
2013-07-20 12:06:00,93.6,70.9,29.84,SSE,158,4.5,6.9,48,0.00,,,0.00,pywws,2013-07-20 16:06:00,
2013-07-20 12:11:00,93.4,70.7,29.84,WSW,248,4.5,6.9,48,0.00,,,0.00,pywws,2013-07-20 16:11:00,
2013-07-20 12:17:00,93.4,70.7,29.84,North,0,6.0,8.3,48,0.00,,,0.00,pywws,2013-07-20 16:17:00,
2013-07-20 12:23:00,93.6,70.9,29.84,SW,225,6.0,9.8,48,0.00,,,0.00,pywws,2013-07-20 16:23:00,
2013-07-20 12:28:00,93.2,69.9,29.84,West,270,3.8,5.4,47,0.00,,,0.00,pywws,2013-07-20 16:28:00,
2013-07-20 12:34:00,93.4,70.1,29.84,SW,225,4.5,9.8,47,0.00,,,0.00,pywws,2013-07-20 16:34:00,
2013-07-20 12:39:00,93.9,70.6,29.83,SW,225,3.1,8.3,47,0.00,,,0.00,pywws,2013-07-20 16:39:00,
2013-07-20 12:45:00,94.5,71.1,29.83,West,270,9.8,15.2,47,0.00,,,0.00,pywws,2013-07-20 16:45:00,
2013-07-20 12:51:00,94.3,70.3,29.83,SW,225,6.0,9.8,46,0.00,,,0.00,pywws,2013-07-20 16:51:00,
2013-07-20 12:56:00,94.6,70.6,29.83,SW,225,5.4,7.6,46,0.00,,,0.00,pywws,2013-07-20 16:56:00,
2013-07-20 13:02:00,95.2,71.1,29.83,SW,225,8.3,10.7,46,0.00,,,0.00,pywws,2013-07-20 17:02:00,
2013-07-20 13:07:00,95.0,70.3,29.83,NNE,22,5.4,7.6,45,0.00,,,0.00,pywws,2013-07-20 17:07:00,
2013-07-20 13:13:00,93.9,70.6,29.83,WNW,292,6.9,9.8,47,0.00,,,0.00,pywws,2013-07-20 17:13:00,
2013-07-20 13:19:00,93.2,69.9,29.83,NW,315,4.5,6.0,47,0.00,,,0.00,pywws,2013-07-20 17:19:00,
2013-07-20 13:24:00,93.0,70.4,29.83,SSW,202,7.6,9.8,48,0.00,,,0.00,pywws,2013-07-20 17:24:00,
2013-07-20 13:30:00,92.7,70.7,29.83,West,270,7.6,11.4,49,0.00,,,0.00,pywws,2013-07-20 17:30:00,
2013-07-20 13:35:00,92.3,69.7,29.83,WNW,292,6.9,9.8,48,0.00,,,0.00,pywws,2013-07-20 17:35:00,
2013-07-20 13:41:00,91.6,69.1,29.84,West,270,12.1,15.9,48,0.00,,,0.00,pywws,2013-07-20 17:41:00,
2013-07-20 13:47:00,90.3,69.1,29.83,SW,225,8.3,17.5,50,0.00,,,0.00,pywws,2013-07-20 17:47:00,
2013-07-20 13:52:00,90.5,69.9,29.83,SSW,202,3.8,9.2,51,0.00,,,0.00,pywws,2013-07-20 17:52:00,
2013-07-20 13:58:00,91.6,70.3,29.83,SW,225,7.6,10.7,50,0.00,,,0.00,pywws,2013-07-20 17:58:00,
2013-07-20 14:03:00,92.3,70.3,29.83,WNW,292,7.6,14.5,49,0.00,,,0.00,pywws,2013-07-20 18:03:00,
2013-07-20 14:09:00,92.7,70.7,29.83,SW,225,5.4,7.6,49,0.00,,,0.00,pywws,2013-07-20 18:09:00,
2013-07-20 14:15:00,93.4,70.7,29.83,SW,225,6.0,8.3,48,0.00,,,0.00,pywws,2013-07-20 18:15:00,
2013-07-20 14:20:00,93.6,70.3,29.83,West,270,9.2,14.5,47,0.00,,,0.00,pywws,2013-07-20 18:20:00,
2013-07-20 14:26:00,93.9,70.6,29.83,NW,315,11.4,15.2,47,0.00,,,0.00,pywws,2013-07-20 18:26:00,
2013-07-20 14:32:00,93.6,70.3,29.83,South,180,6.0,11.4,47,0.00,,,0.00,pywws,2013-07-20 18:32:00,
2013-07-20 14:37:00,93.7,70.4,29.83,NW,315,6.9,9.2,47,0.00,,,0.00,pywws,2013-07-20 18:37:00,
2013-07-20 14:43:00,93.7,70.4,29.83,SW,225,5.4,8.3,47,0.00,,,0.00,pywws,2013-07-20 18:43:00,
2013-07-20 14:48:00,93.7,70.4,29.83,SW,225,9.2,11.4,47,0.00,,,0.00,pywws,2013-07-20 18:48:00,
2013-07-20 14:54:00,93.4,70.1,29.83,West,270,6.9,13.6,47,0.00,,,0.00,pywws,2013-07-20 18:54:00,
2013-07-20 14:59:00,92.7,69.4,29.82,WSW,248,7.6,12.1,47,0.00,,,0.00,pywws,2013-07-20 18:59:00,
2013-07-20 15:05:00,92.5,69.9,29.82,ESE,112,5.4,7.6,48,0.00,,,0.00,pywws,2013-07-20 19:05:00,
2013-07-20 15:10:00,92.8,70.2,29.82,NW,315,6.0,8.3,48,0.00,,,0.00,pywws,2013-07-20 19:10:00,
2013-07-20 15:15:00,93.2,69.3,29.82,West,270,5.4,6.9,46,0.00,,,0.00,pywws,2013-07-20 19:15:00,
2013-07-20 15:21:00,93.2,69.9,29.82,NW,315,9.8,11.4,47,0.00,,,0.00,pywws,2013-07-20 19:21:00,
2013-07-20 15:27:00,93.2,69.9,29.82,SE,135,7.6,11.4,47,0.00,,,0.00,pywws,2013-07-20 19:27:00,
2013-07-20 15:32:00,93.4,69.5,29.82,West,270,7.6,9.2,46,0.00,,,0.00,pywws,2013-07-20 19:32:00,
2013-07-20 15:37:00,93.6,69.6,29.82,NW,315,6.0,10.7,46,0.00,,,0.00,pywws,2013-07-20 19:37:00,
2013-07-20 15:43:00,93.7,69.1,29.82,West,270,6.0,10.7,45,0.00,,,0.00,pywws,2013-07-20 19:43:00,
2013-07-20 15:48:00,94.1,69.5,29.82,West,270,8.3,10.7,45,0.00,,,0.00,pywws,2013-07-20 19:48:00,
2013-07-20 15:53:00,94.3,69.6,29.81,NW,315,7.6,11.4,45,0.00,,,0.00,pywws,2013-07-20 19:53:00,
2013-07-20 15:59:00,94.1,69.5,29.81,SW,225,7.6,10.7,45,0.00,,,0.00,pywws,2013-07-20 19:59:00,
2013-07-20 16:04:00,94.1,69.5,29.82,NW,315,4.5,7.6,45,0.00,,,0.00,pywws,2013-07-20 20:04:00,
2013-07-20 16:10:00,93.7,69.1,29.81,North,0,7.6,11.4,45,0.00,,,0.00,pywws,2013-07-20 20:10:00,
2013-07-20 16:15:00,93.4,68.8,29.82,NW,315,6.9,11.4,45,0.00,,,0.00,pywws,2013-07-20 20:15:00,
2013-07-20 16:21:00,93.4,69.5,29.82,SSE,158,7.6,9.8,46,0.00,,,0.00,pywws,2013-07-20 20:21:00,
2013-07-20 16:27:00,93.6,69.6,29.81,NW,315,8.3,12.1,46,0.00,,,0.00,pywws,2013-07-20 20:27:00,
2013-07-20 16:32:00,93.6,69.0,29.81,SW,225,7.6,13.0,45,0.00,,,0.00,pywws,2013-07-20 20:32:00,
2013-07-20 16:38:00,93.2,69.3,29.81,WSW,248,4.5,6.9,46,0.00,,,0.00,pywws,2013-07-20 20:38:00,
2013-07-20 16:43:00,93.2,68.7,29.81,NW,315,5.4,7.6,45,0.00,,,0.00,pywws,2013-07-20 20:43:00,
2013-07-20 16:49:00,93.4,68.8,29.81,West,270,13.0,15.9,45,0.00,,,0.00,pywws,2013-07-20 20:49:00,
2013-07-20 16:55:00,93.6,69.0,29.81,West,270,13.0,16.8,45,0.00,,,0.00,pywws,2013-07-20 20:55:00,
2013-07-20 17:00:00,93.6,68.3,29.81,West,270,11.4,15.2,44,0.00,,,0.00,pywws,2013-07-20 21:00:00,
2013-07-20 17:06:00,93.7,69.1,29.81,WSW,248,8.3,15.2,45,0.00,,,0.00,pywws,2013-07-20 21:06:00,
2013-07-20 17:11:00,93.6,68.3,29.81,West,270,6.9,11.4,44,0.00,,,0.00,pywws,2013-07-20 21:11:00,
2013-07-20 17:17:00,93.4,68.2,29.81,NW,315,8.3,12.1,44,0.00,,,0.00,pywws,2013-07-20 21:17:00,
2013-07-20 17:23:00,93.2,68.0,29.81,NW,315,9.8,13.0,44,0.00,,,0.00,pywws,2013-07-20 21:23:00,
2013-07-20 17:28:00,92.5,68.0,29.81,NW,315,12.1,14.5,45,0.00,,,0.00,pywws,2013-07-20 21:28:00,
2013-07-20 17:33:00,92.1,67.7,29.82,NW,315,6.0,7.6,45,0.00,,,0.00,pywws,2013-07-20 21:33:00,
2013-07-20 17:39:00,91.6,67.8,29.82,NW,315,8.3,14.5,46,0.00,,,0.00,pywws,2013-07-20 21:39:00,
2013-07-20 17:44:00,90.9,65.9,29.83,North,0,12.1,15.2,44,0.00,,,0.00,pywws,2013-07-20 21:44:00,
2013-07-20 17:49:00,90.3,66.1,29.83,NW,315,6.9,13.0,45,0.00,,,0.00,pywws,2013-07-20 21:49:00,
2013-07-20 17:55:00,90.0,65.7,29.83,WNW,292,6.9,12.1,45,0.00,,,0.00,pywws,2013-07-20 21:55:00,
2013-07-20 18:00:00,89.8,64.3,29.83,WSW,248,6.9,12.1,43,0.00,,,0.00,pywws,2013-07-20 22:00:00,
2013-07-20 18:05:00,90.0,63.7,29.83,NW,315,3.8,8.3,42,0.00,,,0.00,pywws,2013-07-20 22:05:00,
2013-07-20 18:11:00,90.5,64.9,29.83,NW,315,4.5,6.9,43,0.00,,,0.00,pywws,2013-07-20 22:11:00,
2013-07-20 18:16:00,90.5,64.2,29.83,NNW,338,6.0,9.2,42,0.00,,,0.00,pywws,2013-07-20 22:16:00,
2013-07-20 18:22:00,90.5,64.2,29.83,NW,315,5.4,9.2,42,0.00,,,0.00,pywws,2013-07-20 22:22:00,
2013-07-20 18:27:00,90.3,63.4,29.83,SE,135,3.1,6.0,41,0.00,,,0.00,pywws,2013-07-20 22:27:00,
2013-07-20 18:33:00,90.0,63.1,29.83,SW,225,2.2,5.4,41,0.00,,,0.00,pywws,2013-07-20 22:33:00,
2013-07-20 18:39:00,89.6,62.7,29.84,NW,315,3.8,6.0,41,0.00,,,0.00,pywws,2013-07-20 22:39:00,
2013-07-20 18:46:00,89.1,62.9,29.84,NW,315,5.4,7.6,42,0.00,,,0.00,pywws,2013-07-20 22:46:00,
2013-07-20 18:51:00,88.7,62.6,29.84,SE,135,6.0,8.3,42,0.00,,,0.00,pywws,2013-07-20 22:51:00,
2013-07-20 18:57:00,88.3,62.3,29.85,NW,315,6.9,9.8,42,0.00,,,0.00,pywws,2013-07-20 22:57:00,
2013-07-20 19:03:00,88.2,62.8,29.84,West,270,3.8,7.6,43,0.00,,,0.00,pywws,2013-07-20 23:03:00,
2013-07-20 19:08:00,88.2,62.8,29.84,West,270,3.1,4.5,43,0.00,,,0.00,pywws,2013-07-20 23:08:00,
2013-07-20 19:14:00,88.0,62.6,29.84,South,180,3.1,4.5,43,0.00,,,0.00,pywws,2013-07-20 23:14:00,
2013-07-20 19:19:00,87.8,62.5,29.84,SW,225,6.0,11.4,43,0.00,,,0.00,pywws,2013-07-20 23:19:00,
2013-07-20 19:25:00,87.6,63.6,29.84,NW,315,6.0,9.8,45,0.00,,,0.00,pywws,2013-07-20 23:25:00,
2013-07-20 19:31:00,87.3,63.3,29.85,West,270,4.5,5.4,45,0.00,,,0.00,pywws,2013-07-20 23:31:00,
2013-07-20 19:36:00,87.1,63.1,29.86,West,270,2.2,3.8,45,0.00,,,0.00,pywws,2013-07-20 23:36:00,
2013-07-20 19:42:00,86.9,63.0,29.86,NW,315,1.6,2.2,45,0.00,,,0.00,pywws,2013-07-20 23:42:00,
2013-07-20 19:47:00,86.9,63.0,29.86,West,270,3.1,4.5,45,0.00,,,0.00,pywws,2013-07-20 23:47:00,
2013-07-20 19:52:00,86.7,62.8,29.86,West,270,0.7,1.6,45,0.00,,,0.00,pywws,2013-07-20 23:52:00,
2013-07-20 19:58:00,86.5,63.3,29.87,West,270,3.8,8.3,46,0.00,,,0.00,pywws,2013-07-20 23:58:00,
2013-07-20 20:03:00,86.5,62.6,29.87,North,0,3.8,5.4,45,0.00,,,0.00,pywws,2013-07-21 00:03:00,
2013-07-20 20:10:00,86.5,63.3,29.87,West,270,1.6,3.1,46,0.00,,,0.00,pywws,2013-07-21 00:10:00,
2013-07-20 20:15:00,86.4,63.1,29.87,NW,315,4.5,6.0,46,0.00,,,0.00,pywws,2013-07-21 00:15:00,
2013-07-20 20:21:00,86.4,63.1,29.87,NW,315,3.8,6.0,46,0.00,,,0.00,pywws,2013-07-21 00:21:00,
2013-07-20 20:27:00,86.4,63.1,29.88,NW,315,3.8,6.9,46,0.00,,,0.00,pywws,2013-07-21 00:27:00,
2013-07-20 20:32:00,86.4,63.1,29.88,West,270,1.6,3.1,46,0.00,,,0.00,pywws,2013-07-21 00:32:00,
2013-07-20 20:38:00,86.2,62.9,29.87,SW,225,2.2,3.1,46,0.00,,,0.00,pywws,2013-07-21 00:38:00,
2013-07-20 20:43:00,86.2,63.6,29.87,West,270,2.2,3.8,47,0.00,,,0.00,pywws,2013-07-21 00:43:00,
2013-07-20 20:49:00,86.0,63.4,29.88,West,270,1.6,4.5,47,0.00,,,0.00,pywws,2013-07-21 00:49:00,
2013-07-20 20:55:00,86.0,63.4,29.88,NW,315,3.1,4.5,47,0.00,,,0.00,pywws,2013-07-21 00:55:00,
2013-07-20 21:00:00,85.8,63.8,29.88,NW,315,2.2,3.1,48,0.00,,,0.00,pywws,2013-07-21 01:00:00,
2013-07-20 21:06:00,85.6,63.7,29.88,North,0,0.0,0.7,48,0.00,,,0.00,pywws,2013-07-21 01:06:00,
2013-07-20 21:11:00,85.6,63.7,29.88,West,270,0.7,2.2,48,0.00,,,0.00,pywws,2013-07-21 01:11:00,
2013-07-20 21:17:00,85.6,64.3,29.89,West,270,2.2,3.1,49,0.00,,,0.00,pywws,2013-07-21 01:17:00,
2013-07-20 21:23:00,85.5,64.1,29.90,West,270,1.6,3.1,49,0.00,,,0.00,pywws,2013-07-21 01:23:00,
2013-07-20 21:29:00,85.5,64.1,29.90,SW,225,0.7,2.2,49,0.00,,,0.00,pywws,2013-07-21 01:29:00,
2013-07-20 21:34:00,85.5,64.1,29.90,NNE,22,0.0,0.7,49,0.00,,,0.00,pywws,2013-07-21 01:34:00,
2013-07-20 21:40:00,85.5,64.1,29.90,NW,315,2.2,3.8,49,0.00,,,0.00,pywws,2013-07-21 01:40:00,
2013-07-20 21:45:00,85.3,63.9,29.89,East,90,0.0,0.7,49,0.00,,,0.00,pywws,2013-07-21 01:45:00,
2013-07-20 21:51:00,85.1,64.3,29.90,SW,225,0.0,0.7,50,0.00,,,0.00,pywws,2013-07-21 01:51:00,
2013-07-20 21:56:00,84.9,64.7,29.90,SW,225,0.0,0.7,51,0.00,,,0.00,pywws,2013-07-21 01:56:00,
2013-07-20 22:02:00,84.6,65.5,29.90,SE,135,0.0,0.0,53,0.00,,,0.00,pywws,2013-07-21 02:02:00,
2013-07-20 22:07:00,84.4,66.4,29.90,NE,45,0.0,0.7,55,0.00,,,0.00,pywws,2013-07-21 02:07:00,
2013-07-20 22:13:00,84.0,67.1,29.90,NW,315,0.0,0.7,57,0.00,,,0.00,pywws,2013-07-21 02:13:00,
2013-07-20 22:19:00,83.7,66.3,29.90,North,0,0.7,1.6,56,0.00,,,0.00,pywws,2013-07-21 02:19:00,
2013-07-20 22:24:00,83.5,66.1,29.90,SE,135,0.0,0.0,56,0.00,,,0.00,pywws,2013-07-21 02:24:00,
2013-07-20 22:29:00,83.3,65.9,29.90,North,0,0.0,0.0,56,0.00,,,0.00,pywws,2013-07-21 02:29:00,
2013-07-20 22:35:00,82.9,65.1,29.91,SE,135,0.0,0.0,55,0.00,,,0.00,pywws,2013-07-21 02:35:00,
2013-07-20 22:40:00,82.8,64.9,29.91,SE,135,0.0,0.0,55,0.00,,,0.00,pywws,2013-07-21 02:40:00,
2013-07-20 22:46:00,82.4,64.6,29.91,North,0,0.7,1.6,55,0.00,,,0.00,pywws,2013-07-21 02:46:00,
2013-07-20 22:52:00,82.2,64.9,29.91,NW,315,0.0,0.7,56,0.00,,,0.00,pywws,2013-07-21 02:52:00,
2013-07-20 22:57:00,82.0,64.8,29.91,NW,315,0.7,1.6,56,0.00,,,0.00,pywws,2013-07-21 02:57:00,
2013-07-20 23:03:00,82.0,64.8,29.91,NW,315,0.0,0.7,56,0.00,,,0.00,pywws,2013-07-21 03:03:00,
2013-07-20 23:09:00,81.9,65.1,29.92,West,270,0.7,1.6,57,0.00,,,0.00,pywws,2013-07-21 03:09:00,
2013-07-20 23:14:00,81.9,65.1,29.91,NW,315,0.0,1.6,57,0.00,,,0.00,pywws,2013-07-21 03:14:00,
2013-07-20 23:19:00,81.9,65.6,29.92,West,270,2.2,3.1,58,0.00,,,0.00,pywws,2013-07-21 03:19:00,
2013-07-20 23:25:00,81.7,65.4,29.92,West,270,0.7,1.6,58,0.00,,,0.00,pywws,2013-07-21 03:25:00,
2013-07-20 23:30:00,81.7,65.4,29.93,North,0,0.7,1.6,58,0.00,,,0.00,pywws,2013-07-21 03:30:00,
2013-07-20 23:35:00,81.7,65.9,29.93,North,0,0.7,1.6,59,0.00,,,0.00,pywws,2013-07-21 03:35:00,
2013-07-20 23:41:00,81.7,65.9,29.93,North,0,0.7,1.6,59,0.00,,,0.00,pywws,2013-07-21 03:41:00,
2013-07-20 23:47:00,81.5,65.8,29.92,NNW,338,1.6,2.2,59,0.00,,,0.00,pywws,2013-07-21 03:47:00,
2013-07-20 23:52:00,81.5,65.8,29.92,NW,315,2.2,3.1,59,0.00,,,0.00,pywws,2013-07-21 03:52:00,
2013-07-20 23:57:00,81.5,66.2,29.92,North,0,2.2,3.8,60,0.00,,,0.00,pywws,2013-07-21 03:57:00,